sensor_id;sensor_type;location;lat;lon;timestamp;pressure;altitude;pressure_sealevel;temperature;humidity
68525;BME280;55524;51.380;13.372;2023-04-01T00:01:12;98757.88;;;8.83;100.00
68525;BME280;55524;51.380;13.372;2023-04-01T00:03:40;98755.25;;;8.83;100.00
68525;BME280;55524;51.380;13.372;2023-04-01T00:06:06;98749.03;;;8.84;100.00
68525;BME280;55524;51.380;13.372;2023-04-01T00:08:33;98755.41;;;8.80;100.00
68525;BME280;55524;51.380;13.372;2023-04-01T00:10:59;98751.66;;;8.84;100.00
68525;BME280;55524;51.380;13.372;2023-04-01T00:13:26;98744.59;;;8.85;100.00
68525;BME280;55524;51.380;13.372;2023-04-01T00:15:54;98747.81;;;8.90;100.00
68525;BME280;55524;51.380;13.372;2023-04-01T00:18:21;98748.84;;;8.88;100.00
68525;BME280;55524;51.380;13.372;2023-04-01T00:20:48;98754.13;;;8.88;100.00
68525;BME280;55524;51.380;13.372;2023-04-01T00:23:16;98755.13;;;8.85;100.00
68525;BME280;55524;51.380;13.372;2023-04-01T00:25:43;98746.41;;;8.84;100.00
68525;BME280;55524;51.380;13.372;2023-04-01T00:28:09;98746.22;;;8.88;100.00
68525;BME280;55524;51.380;13.372;2023-04-01T00:30:36;98752.81;;;8.95;100.00
68525;BME280;55524;51.380;13.372;2023-04-01T00:33:03;98747.47;;;8.96;100.00
68525;BME280;55524;51.380;13.372;2023-04-01T00:35:29;98756.31;;;8.95;100.00
68525;BME280;55524;51.380;13.372;2023-04-01T00:37:56;98748.59;;;8.92;100.00
68525;BME280;55524;51.380;13.372;2023-04-01T00:40:36;98750.16;;;8.95;100.00
68525;BME280;55524;51.380;13.372;2023-04-01T00:43:03;98757.22;;;8.94;100.00
68525;BME280;55524;51.380;13.372;2023-04-01T00:48:04;98758.19;;;8.93;100.00
68525;BME280;55524;51.380;13.372;2023-04-01T00:50:33;98752.75;;;8.96;100.00
68525;BME280;55524;51.380;13.372;2023-04-01T00:53:01;98748.22;;;8.98;100.00
68525;BME280;55524;51.380;13.372;2023-04-01T00:55:29;98743.88;;;8.97;100.00
68525;BME280;55524;51.380;13.372;2023-04-01T00:57:58;98753.59;;;8.97;100.00
68525;BME280;55524;51.380;13.372;2023-04-01T01:00:26;98741.09;;;9.00;100.00
68525;BME280;55524;51.380;13.372;2023-04-01T01:02:52;98744.00;;;8.96;100.00
68525;BME280;55524;51.380;13.372;2023-04-01T01:05:23;98744.00;;;8.96;100.00
68525;BME280;55524;51.380;13.372;2023-04-01T01:11:06;98752.75;;;8.96;100.00
68525;BME280;55524;51.380;13.372;2023-04-01T01:16:21;98747.47;;;8.96;100.00
68525;BME280;55524;51.380;13.372;2023-04-01T01:18:55;98751.91;;;8.96;100.00
68525;BME280;55524;51.380;13.372;2023-04-01T01:21:49;98753.41;;;9.00;100.00
68525;BME280;55524;51.380;13.372;2023-04-01T01:27:11;98747.81;;;8.90;100.00
68525;BME280;55524;51.380;13.372;2023-04-01T01:32:30;98754.81;;;8.91;100.00
68525;BME280;55524;51.380;13.372;2023-04-01T01:37:45;98752.81;;;8.95;100.00
68525;BME280;55524;51.380;13.372;2023-04-01T01:40:12;98749.16;;;8.97;100.00
68525;BME280;55524;51.380;13.372;2023-04-01T01:42:49;98756.31;;;8.95;100.00
68525;BME280;55524;51.380;13.372;2023-04-01T01:45:19;98756.22;;;8.97;100.00
68525;BME280;55524;51.380;13.372;2023-04-01T01:47:46;98752.91;;;8.93;100.00
68525;BME280;55524;51.380;13.372;2023-04-01T01:50:15;98756.75;;;8.88;100.00
68525;BME280;55524;51.380;13.372;2023-04-01T01:52:41;98750.66;;;8.87;100.00
68525;BME280;55524;51.380;13.372;2023-04-01T01:55:28;98754.41;;;8.83;100.00
68525;BME280;55524;51.380;13.372;2023-04-01T01:58:00;98749.88;;;8.85;100.00
68525;BME280;55524;51.380;13.372;2023-04-01T02:00:28;98762.09;;;8.86;100.00
68525;BME280;55524;51.380;13.372;2023-04-01T02:02:55;98757.50;;;8.90;100.00
68525;BME280;55524;51.380;13.372;2023-04-01T02:05:25;98760.25;;;8.88;100.00
68525;BME280;55524;51.380;13.372;2023-04-01T02:08:25;98753.75;;;8.94;100.00
68525;BME280;55524;51.380;13.372;2023-04-01T02:11:05;98753.91;;;8.91;100.00
68525;BME280;55524;51.380;13.372;2023-04-01T02:13:49;98761.94;;;8.89;100.00
68525;BME280;55524;51.380;13.372;2023-04-01T02:16:53;98762.19;;;8.84;100.00
68525;BME280;55524;51.380;13.372;2023-04-01T02:19:24;98754.03;;;8.89;100.00
68525;BME280;55524;51.380;13.372;2023-04-01T02:21:57;98753.34;;;8.85;100.00
68525;BME280;55524;51.380;13.372;2023-04-01T02:24:27;98754.41;;;8.83;100.00
68525;BME280;55524;51.380;13.372;2023-04-01T02:26:56;98759.72;;;8.81;100.00
68525;BME280;55524;51.380;13.372;2023-04-01T02:29:24;98765.09;;;8.80;100.00
68525;BME280;55524;51.380;13.372;2023-04-01T02:31:53;98755.47;;;8.79;100.00
68525;BME280;55524;51.380;13.372;2023-04-01T02:34:22;98765.84;;;8.82;100.00
68525;BME280;55524;51.380;13.372;2023-04-01T02:36:50;98759.72;;;8.81;100.00
68525;BME280;55524;51.380;13.372;2023-04-01T02:39:17;98757.94;;;8.82;100.00
68525;BME280;55524;51.380;13.372;2023-04-01T02:41:45;98770.53;;;8.77;100.00
68525;BME280;55524;51.380;13.372;2023-04-01T02:44:13;98770.44;;;8.78;100.00
68525;BME280;55524;51.380;13.372;2023-04-01T02:46:40;98772.84;;;8.83;100.00
68525;BME280;55524;51.380;13.372;2023-04-01T02:49:07;98770.19;;;8.83;100.00
68525;BME280;55524;51.380;13.372;2023-04-01T02:51:33;98764.84;;;8.84;100.00
68525;BME280;55524;51.380;13.372;2023-04-01T02:54:00;98775.47;;;8.83;100.00
68525;BME280;55524;51.380;13.372;2023-04-01T02:56:26;98769.41;;;8.81;100.00
68525;BME280;55524;51.380;13.372;2023-04-01T02:58:53;98775.69;;;8.78;100.00
68525;BME280;55524;51.380;13.372;2023-04-01T03:01:20;98778.44;;;8.77;100.00
68525;BME280;55524;51.380;13.372;2023-04-01T03:03:47;98774.84;;;8.78;100.00
68525;BME280;55524;51.380;13.372;2023-04-01T03:06:15;98780.13;;;8.78;100.00
68525;BME280;55524;51.380;13.372;2023-04-01T03:08:42;98773.16;;;8.77;100.00
68525;BME280;55524;51.380;13.372;2023-04-01T03:11:09;98781.06;;;8.77;100.00
68525;BME280;55524;51.380;13.372;2023-04-01T03:13:36;98774.97;;;8.76;100.00
68525;BME280;55524;51.380;13.372;2023-04-01T03:16:03;98781.06;;;8.77;100.00
68525;BME280;55524;51.380;13.372;2023-04-01T03:18:29;98786.44;;;8.75;100.00
68525;BME280;55524;51.380;13.372;2023-04-01T03:20:55;98788.28;;;8.73;100.00
68525;BME280;55524;51.380;13.372;2023-04-01T03:23:22;98788.03;;;8.78;100.00
68525;BME280;55524;51.380;13.372;2023-04-01T03:25:50;98784.66;;;8.76;100.00
68525;BME280;55524;51.380;13.372;2023-04-01T03:28:16;98782.28;;;8.71;100.00
68525;BME280;55524;51.380;13.372;2023-04-01T03:30:42;98790.81;;;8.75;100.00
68525;BME280;55524;51.380;13.372;2023-04-01T03:33:09;98783.97;;;8.72;100.00
68525;BME280;55524;51.380;13.372;2023-04-01T03:35:35;98783.97;;;8.72;100.00
68525;BME280;55524;51.380;13.372;2023-04-01T03:38:02;98787.28;;;8.76;100.00
68525;BME280;55524;51.380;13.372;2023-04-01T03:40:28;98785.50;;;8.76;100.00
68525;BME280;55524;51.380;13.372;2023-04-01T03:42:54;98792.03;;;8.69;100.00
68525;BME280;55524;51.380;13.372;2023-04-01T03:45:22;98790.25;;;8.70;100.00
68525;BME280;55524;51.380;13.372;2023-04-01T03:47:48;98787.44;;;8.73;100.00
68525;BME280;55524;51.380;13.372;2023-04-01T03:50:14;98793.47;;;8.75;100.00
68525;BME280;55524;51.380;13.372;2023-04-01T03:52:40;98796.97;;;8.75;100.00
68525;BME280;55524;51.380;13.372;2023-04-01T03:55:07;98790.66;;;8.78;100.00
68525;BME280;55524;51.380;13.372;2023-04-01T03:57:33;98796.97;;;8.75;100.00
68525;BME280;55524;51.380;13.372;2023-04-01T04:00:00;98800.44;;;8.76;100.00
68525;BME280;55524;51.380;13.372;2023-04-01T04:02:26;98792.44;;;8.77;100.00
68525;BME280;55524;51.380;13.372;2023-04-01T04:04:52;98794.75;;;8.83;100.00
68525;BME280;55524;51.380;13.372;2023-04-01T04:07:18;98794.75;;;8.83;100.00
68525;BME280;55524;51.380;13.372;2023-04-01T04:09:45;98798.41;;;8.81;100.00
68525;BME280;55524;51.380;13.372;2023-04-01T04:12:11;98799.41;;;8.78;100.00
68525;BME280;55524;51.380;13.372;2023-04-01T04:14:37;98804.50;;;8.81;100.00
68525;BME280;55524;51.380;13.372;2023-04-01T04:17:04;98803.66;;;8.81;100.00
68525;BME280;55524;51.380;13.372;2023-04-01T04:19:32;98813.34;;;8.80;100.00
68525;BME280;55524;51.380;13.372;2023-04-01T04:22:01;98814.38;;;8.78;100.00
68525;BME280;55524;51.380;13.372;2023-04-01T04:24:28;98810.56;;;8.83;100.00
68525;BME280;55524;51.380;13.372;2023-04-01T04:26:54;98816.25;;;8.76;100.00
68525;BME280;55524;51.380;13.372;2023-04-01T04:29:21;98816.25;;;8.76;100.00
68525;BME280;55524;51.380;13.372;2023-04-01T04:31:48;98814.47;;;8.76;100.00
68525;BME280;55524;51.380;13.372;2023-04-01T04:34:15;98819.63;;;8.78;100.00
68525;BME280;55524;51.380;13.372;2023-04-01T04:36:41;98816.94;;;8.79;100.00
68525;BME280;55524;51.380;13.372;2023-04-01T04:39:07;98828.38;;;8.78;100.00
68525;BME280;55524;51.380;13.372;2023-04-01T04:41:33;98831.78;;;8.80;100.00
68525;BME280;55524;51.380;13.372;2023-04-01T04:44:02;98829.75;;;8.85;100.00
68525;BME280;55524;51.380;13.372;2023-04-01T04:46:29;98827.38;;;8.81;100.00
68525;BME280;55524;51.380;13.372;2023-04-01T04:48:56;98827.03;;;8.87;100.00
68525;BME280;55524;51.380;13.372;2023-04-01T04:51:22;98834.66;;;8.92;100.00
68525;BME280;55524;51.380;13.372;2023-04-01T04:53:49;98834.25;;;8.83;100.00
68525;BME280;55524;51.380;13.372;2023-04-01T04:56:19;98823.72;;;8.83;100.00
68525;BME280;55524;51.380;13.372;2023-04-01T04:58:46;98836.53;;;8.90;100.00
68525;BME280;55524;51.380;13.372;2023-04-01T05:01:14;98831.19;;;8.91;100.00
68525;BME280;55524;51.380;13.372;2023-04-01T05:03:41;98834.56;;;8.93;100.00
68525;BME280;55524;51.380;13.372;2023-04-01T05:06:09;98837.47;;;8.89;100.00
68525;BME280;55524;51.380;13.372;2023-04-01T05:08:36;98846.13;;;8.91;100.00
68525;BME280;55524;51.380;13.372;2023-04-01T05:11:03;98842.66;;;8.90;100.00
68525;BME280;55524;51.380;13.372;2023-04-01T05:13:32;98850.22;;;8.96;100.00
68525;BME280;55524;51.380;13.372;2023-04-01T05:15:58;98844.44;;;8.90;100.00
68525;BME280;55524;51.380;13.372;2023-04-01T05:18:24;98846.13;;;8.91;100.00
68525;BME280;55524;51.380;13.372;2023-04-01T05:20:52;98857.34;;;8.94;100.00
68525;BME280;55524;51.380;13.372;2023-04-01T05:23:20;98853.97;;;8.92;100.00
68525;BME280;55524;51.380;13.372;2023-04-01T05:25:49;98853.88;;;8.94;100.00
68525;BME280;55524;51.380;13.372;2023-04-01T05:28:17;98864.34;;;8.95;100.00
68525;BME280;55524;51.380;13.372;2023-04-01T05:30:46;98856.34;;;8.97;100.00
68525;BME280;55524;51.380;13.372;2023-04-01T05:33:13;98861.44;;;9.00;100.00
68525;BME280;55524;51.380;13.372;2023-04-01T05:35:40;98863.97;;;9.01;100.00
68525;BME280;55524;51.380;13.372;2023-04-01T05:38:07;98859.53;;;9.02;100.00
68525;BME280;55524;51.380;13.372;2023-04-01T05:40:33;98864.38;;;9.09;100.00
68525;BME280;55524;51.380;13.372;2023-04-01T05:43:00;98864.53;;;9.06;100.00
68525;BME280;55524;51.380;13.372;2023-04-01T05:45:26;98862.59;;;9.10;100.00
68525;BME280;55524;51.380;13.372;2023-04-01T05:47:53;98864.38;;;9.09;100.00
68525;BME280;55524;51.380;13.372;2023-04-01T05:50:20;98863.53;;;9.09;100.00
68525;BME280;55524;51.380;13.372;2023-04-01T05:52:47;98866.75;;;9.14;100.00
68525;BME280;55524;51.380;13.372;2023-04-01T05:55:13;98873.91;;;9.12;100.00
68525;BME280;55524;51.380;13.372;2023-04-01T05:57:39;98873.81;;;9.14;100.00
68525;BME280;55524;51.380;13.372;2023-04-01T06:00:06;98879.09;;;9.14;100.00
68525;BME280;55524;51.380;13.372;2023-04-01T06:02:32;98876.63;;;9.10;100.00
68525;BME280;55524;51.380;13.372;2023-04-01T06:05:26;98876.28;;;9.17;100.00
68525;BME280;55524;51.380;13.372;2023-04-01T06:08:05;98882.75;;;9.11;100.00
68525;BME280;55524;51.380;13.372;2023-04-01T06:10:59;98883.59;;;9.11;100.00
68525;BME280;55524;51.380;13.372;2023-04-01T06:13:54;98886.41;;;9.08;100.00
68525;BME280;55524;51.380;13.372;2023-04-01T06:16:35;98884.03;;;9.04;100.00
68525;BME280;55524;51.380;13.372;2023-04-01T06:39:07;98888.22;;;9.38;100.00
68525;BME280;55524;51.380;13.372;2023-04-01T06:47:39;98898.25;;;9.47;100.00
68525;BME280;55524;51.380;13.372;2023-04-01T06:50:40;98897.31;;;9.48;100.00
68525;BME280;55524;51.380;13.372;2023-04-01T06:55:55;98903.56;;;9.61;100.00
68525;BME280;55524;51.380;13.372;2023-04-01T06:58:26;98905.06;;;9.66;100.00
68525;BME280;55524;51.380;13.372;2023-04-01T07:01:07;98893.16;;;9.74;100.00
68525;BME280;55524;51.380;13.372;2023-04-01T07:03:43;98903.78;;;9.73;100.00
68525;BME280;55524;51.380;13.372;2023-04-01T07:06:54;98902.84;;;9.74;100.00
68525;BME280;55524;51.380;13.372;2023-04-01T07:09:32;98901.06;;;9.74;100.00
68525;BME280;55524;51.380;13.372;2023-04-01T07:12:06;98903.44;;;9.79;100.00
68525;BME280;55524;51.380;13.372;2023-04-01T07:14:39;98907.41;;;9.86;100.00
68525;BME280;55524;51.380;13.372;2023-04-01T07:17:19;98905.34;;;9.91;100.00
68525;BME280;55524;51.380;13.372;2023-04-01T07:22:27;98909.84;;;9.89;100.00
68525;BME280;55524;51.380;13.372;2023-04-01T07:24:55;98914.28;;;9.89;100.00
68525;BME280;55524;51.380;13.372;2023-04-01T07:27:24;98910.91;;;10.01;100.00
68525;BME280;55524;51.380;13.372;2023-04-01T07:29:51;98921.66;;;9.98;99.31
68525;BME280;55524;51.380;13.372;2023-04-01T07:35:55;98925.25;;;10.11;99.56
68525;BME280;55524;51.380;13.372;2023-04-01T07:44:25;98926.34;;;10.37;97.82
68525;BME280;55524;51.380;13.372;2023-04-01T07:47:05;98931.25;;;10.43;96.42
68525;BME280;55524;51.380;13.372;2023-04-01T07:50:11;98924.56;;;10.52;95.93
68525;BME280;55524;51.380;13.372;2023-04-01T07:55:20;98928.41;;;10.61;95.27
68525;BME280;55524;51.380;13.372;2023-04-01T08:03:43;98937.94;;;10.63;93.52
68525;BME280;55524;51.380;13.372;2023-04-01T08:19:30;98950.03;;;10.81;95.86
68525;BME280;55524;51.380;13.372;2023-04-01T08:22:02;98957.19;;;10.79;94.51
68525;BME280;55524;51.380;13.372;2023-04-01T08:24:40;98954.25;;;10.84;93.27
68525;BME280;55524;51.380;13.372;2023-04-01T08:30:06;98958.41;;;11.02;93.24
68525;BME280;55524;51.380;13.372;2023-04-01T08:32:44;98951.28;;;11.17;92.62
68525;BME280;55524;51.380;13.372;2023-04-01T08:35:29;98953.84;;;11.46;93.13
68525;BME280;55524;51.380;13.372;2023-04-01T08:38:01;98949.09;;;11.51;90.85
68525;BME280;55524;51.380;13.372;2023-04-01T08:46:48;98954.75;;;11.86;89.42
68525;BME280;55524;51.380;13.372;2023-04-01T08:55:36;98952.19;;;11.57;87.11
68525;BME280;55524;51.380;13.372;2023-04-01T08:58:54;98956.50;;;11.73;87.62
68525;BME280;55524;51.380;13.372;2023-04-01T09:07:40;98955.06;;;11.94;89.32
68525;BME280;55524;51.380;13.372;2023-04-01T09:35:48;98934.28;;;12.90;80.95
68525;BME280;55524;51.380;13.372;2023-04-01T09:40:56;98931.38;;;13.06;80.10
68525;BME280;55524;51.380;13.372;2023-04-01T09:49:00;98924.06;;;13.46;77.71
68525;BME280;55524;51.380;13.372;2023-04-01T09:51:55;98939.00;;;13.95;78.39
68525;BME280;55524;51.380;13.372;2023-04-01T09:54:50;98905.19;;;13.38;75.26
68525;BME280;55524;51.380;13.372;2023-04-01T09:57:48;98932.44;;;13.16;77.88
68525;BME280;55524;51.380;13.372;2023-04-01T10:20:52;98945.91;;;13.26;78.80
68525;BME280;55524;51.380;13.372;2023-04-01T10:26:37;98942.06;;;13.17;77.43
68525;BME280;55524;51.380;13.372;2023-04-01T10:40:36;98928.00;;;14.00;76.75
68525;BME280;55524;51.380;13.372;2023-04-01T11:00:46;98893.16;;;15.17;70.10
68525;BME280;55524;51.380;13.372;2023-04-01T11:12:38;98895.84;;;14.72;70.04
68525;BME280;55524;51.380;13.372;2023-04-01T11:21:03;98888.75;;;15.91;68.59
68525;BME280;55524;51.380;13.372;2023-04-01T11:34:42;98942.19;;;14.23;73.22
68525;BME280;55524;51.380;13.372;2023-04-01T11:37:30;98936.53;;;14.27;72.57
68525;BME280;55524;51.380;13.372;2023-04-01T11:40:17;98955.28;;;14.37;74.46
68525;BME280;55524;51.380;13.372;2023-04-01T11:43:07;98934.28;;;14.68;72.67
68525;BME280;55524;51.380;13.372;2023-04-01T11:51:21;98922.03;;;14.32;70.47
68525;BME280;55524;51.380;13.372;2023-04-01T11:56:57;98966.72;;;14.26;74.61
68525;BME280;55524;51.380;13.372;2023-04-01T12:05:22;98991.56;;;13.55;76.31
68525;BME280;55524;51.380;13.372;2023-04-01T12:11:12;99041.66;;;12.19;89.07
68525;BME280;55524;51.380;13.372;2023-04-01T12:13:53;99041.88;;;12.16;93.83
68525;BME280;55524;51.380;13.372;2023-04-01T12:19:19;99034.47;;;12.21;91.77
68525;BME280;55524;51.380;13.372;2023-04-01T12:24:47;99025.94;;;12.43;92.36
68525;BME280;55524;51.380;13.372;2023-04-01T12:30:14;99016.63;;;12.76;92.16
68525;BME280;55524;51.380;13.372;2023-04-01T12:40:30;99022.34;;;12.44;89.19
68525;BME280;55524;51.380;13.372;2023-04-01T12:43:20;99031.13;;;12.32;88.72
68525;BME280;55524;51.380;13.372;2023-04-01T13:15:58;99036.31;;;13.36;88.25
68525;BME280;55524;51.380;13.372;2023-04-01T13:21:44;99024.94;;;13.21;85.21
68525;BME280;55524;51.380;13.372;2023-04-01T13:27:21;99053.84;;;12.87;90.90
68525;BME280;55524;51.380;13.372;2023-04-01T13:32:32;99050.13;;;12.77;92.17
68525;BME280;55524;51.380;13.372;2023-04-01T13:37:50;99045.03;;;12.74;92.23
68525;BME280;55524;51.380;13.372;2023-04-01T13:40:39;99055.84;;;12.71;95.08
68525;BME280;55524;51.380;13.372;2023-04-01T13:43:19;99042.16;;;12.64;92.29
68525;BME280;55524;51.380;13.372;2023-04-01T13:48:46;99065.56;;;12.45;94.87
68525;BME280;55524;51.380;13.372;2023-04-01T13:56:44;99072.81;;;12.16;97.51
68525;BME280;55524;51.380;13.372;2023-04-01T14:08:14;99084.44;;;11.02;98.84
68525;BME280;55524;51.380;13.372;2023-04-01T14:10:48;99090.00;;;10.83;100.00
68525;BME280;55524;51.380;13.372;2023-04-01T14:13:34;99090.16;;;10.80;100.00
68525;BME280;55524;51.380;13.372;2023-04-01T14:17:28;99097.34;;;10.78;100.00
68525;BME280;55524;51.380;13.372;2023-04-01T14:19:52;99093.88;;;10.92;100.00
68525;BME280;55524;51.380;13.372;2023-04-01T14:28:51;99083.19;;;11.07;96.02
68525;BME280;55524;51.380;13.372;2023-04-01T14:34:23;99075.25;;;11.50;92.68
68525;BME280;55524;51.380;13.372;2023-04-01T14:37:12;99086.94;;;11.61;95.16
68525;BME280;55524;51.380;13.372;2023-04-01T14:39:56;99083.59;;;11.71;92.85
68525;BME280;55524;51.380;13.372;2023-04-01T14:42:36;99086.75;;;11.64;91.92
68525;BME280;55524;51.380;13.372;2023-04-01T14:50:53;99093.94;;;11.47;95.32
68525;BME280;55524;51.380;13.372;2023-04-01T14:55:52;99102.00;;;11.60;98.67
68525;BME280;55524;51.380;13.372;2023-04-01T14:58:21;99104.03;;;11.69;100.00
68525;BME280;55524;51.380;13.372;2023-04-01T15:03:32;99106.50;;;11.72;94.77
68525;BME280;55524;51.380;13.372;2023-04-01T15:09:23;99107.53;;;11.70;97.20
68525;BME280;55524;51.380;13.372;2023-04-01T15:17:29;99111.75;;;12.01;96.44
68525;BME280;55524;51.380;13.372;2023-04-01T15:20:28;99110.63;;;11.91;93.57
68525;BME280;55524;51.380;13.372;2023-04-01T15:32:16;99116.47;;;11.81;97.43
68525;BME280;55524;51.380;13.372;2023-04-01T15:45:36;99126.53;;;11.76;97.05
68525;BME280;55524;51.380;13.372;2023-04-01T15:51:18;99124.53;;;11.80;96.36
68525;BME280;55524;51.380;13.372;2023-04-01T15:59:56;99135.03;;;11.96;94.31
68525;BME280;55524;51.380;13.372;2023-04-01T16:02:50;99139.25;;;11.98;95.91
68525;BME280;55524;51.380;13.372;2023-04-01T16:05:30;99140.03;;;12.00;94.28
68525;BME280;55524;51.380;13.372;2023-04-01T16:11:13;99144.75;;;11.95;94.52
68525;BME280;55524;51.380;13.372;2023-04-01T16:19:40;99157.72;;;11.86;96.73
68525;BME280;55524;51.380;13.372;2023-04-01T16:27:35;99163.50;;;11.49;98.13
68525;BME280;55524;51.380;13.372;2023-04-01T16:33:20;99174.44;;;11.43;95.75
68525;BME280;55524;51.380;13.372;2023-04-01T16:36:21;99182.66;;;11.39;96.24
68525;BME280;55524;51.380;13.372;2023-04-01T16:39:12;99178.41;;;11.36;96.89
68525;BME280;55524;51.380;13.372;2023-04-01T16:41:47;99185.78;;;11.31;98.10
68525;BME280;55524;51.380;13.372;2023-04-01T16:44:26;99194.91;;;11.11;100.00
68525;BME280;55524;51.380;13.372;2023-04-01T16:47:08;99197.00;;;11.20;100.00
68525;BME280;55524;51.380;13.372;2023-04-01T16:49:53;99195.88;;;11.24;99.79
68525;BME280;55524;51.380;13.372;2023-04-01T16:55:17;99201.91;;;11.12;100.00
68525;BME280;55524;51.380;13.372;2023-04-01T16:57:50;99206.13;;;11.00;100.00
68525;BME280;55524;51.380;13.372;2023-04-01T17:00:37;99214.69;;;10.90;100.00
68525;BME280;55524;51.380;13.372;2023-04-01T17:03:20;99212.41;;;10.83;100.00
68525;BME280;55524;51.380;13.372;2023-04-01T17:08:57;99214.75;;;10.74;100.00
68525;BME280;55524;51.380;13.372;2023-04-01T17:20:09;99237.50;;;10.61;100.00
68525;BME280;55524;51.380;13.372;2023-04-01T17:31:45;99260.88;;;10.52;100.00
68525;BME280;55524;51.380;13.372;2023-04-01T17:42:46;99274.69;;;10.42;100.00
68525;BME280;55524;51.380;13.372;2023-04-01T17:59:38;99302.72;;;9.95;100.00
68525;BME280;55524;51.380;13.372;2023-04-01T18:25:28;99339.53;;;9.46;100.00
68525;BME280;55524;51.380;13.372;2023-04-01T18:27:28;99345.13;;;9.40;100.00
68525;BME280;55524;51.380;13.372;2023-04-01T18:32:50;99356.84;;;9.34;100.00
68525;BME280;55524;51.380;13.372;2023-04-01T18:38:57;99369.47;;;9.28;100.00
68525;BME280;55524;51.380;13.372;2023-04-01T18:41:36;99377.53;;;9.25;100.00
68525;BME280;55524;51.380;13.372;2023-04-01T18:44:30;99370.22;;;9.13;100.00
68525;BME280;55524;51.380;13.372;2023-04-01T19:00:48;99401.47;;;9.03;100.00
68525;BME280;55524;51.380;13.372;2023-04-01T19:03:20;99407.00;;;8.97;100.00
68525;BME280;55524;51.380;13.372;2023-04-01T19:05:51;99411.44;;;8.96;100.00
68525;BME280;55524;51.380;13.372;2023-04-01T19:08:28;99411.56;;;8.93;100.00
68525;BME280;55524;51.380;13.372;2023-04-01T19:38:41;99442.72;;;8.46;100.00
68525;BME280;55524;51.380;13.372;2023-04-01T19:41:16;99450.00;;;8.41;100.00
68525;BME280;55524;51.380;13.372;2023-04-01T19:44:21;99452.06;;;8.32;100.00
68525;BME280;55524;51.380;13.372;2023-04-01T19:47:12;99455.59;;;8.31;100.00
68525;BME280;55524;51.380;13.372;2023-04-01T19:52:35;99465.69;;;8.22;100.00
68525;BME280;55524;51.380;13.372;2023-04-01T20:00:47;99474.91;;;8.11;100.00
68525;BME280;55524;51.380;13.372;2023-04-01T20:03:48;99479.47;;;8.08;100.00
68525;BME280;55524;51.380;13.372;2023-04-01T20:11:48;99490.34;;;7.99;100.00
68525;BME280;55524;51.380;13.372;2023-04-01T20:14:35;99497.47;;;7.97;100.00
68525;BME280;55524;51.380;13.372;2023-04-01T20:17:30;99508.13;;;7.94;100.00
68525;BME280;55524;51.380;13.372;2023-04-01T20:20:02;99504.84;;;7.88;100.00
68525;BME280;55524;51.380;13.372;2023-04-01T20:27:39;99516.63;;;7.78;100.00
68525;BME280;55524;51.380;13.372;2023-04-01T20:33:08;99519.47;;;7.74;100.00
68525;BME280;55524;51.380;13.372;2023-04-01T20:41:42;99533.72;;;7.68;100.00
68525;BME280;55524;51.380;13.372;2023-04-01T20:44:13;99535.63;;;7.64;100.00
68525;BME280;55524;51.380;13.372;2023-04-01T20:52:07;99549.00;;;7.58;100.00
68525;BME280;55524;51.380;13.372;2023-04-01T20:57:31;99545.53;;;7.58;100.00
68525;BME280;55524;51.380;13.372;2023-04-01T21:11:03;99576.13;;;7.37;100.00
68525;BME280;55524;51.380;13.372;2023-04-01T21:16:49;99580.00;;;7.27;100.00
68525;BME280;55524;51.380;13.372;2023-04-01T21:28:29;99605.63;;;6.97;100.00
68525;BME280;55524;51.380;13.372;2023-04-01T21:31:02;99614.50;;;6.94;100.00
68525;BME280;55524;51.380;13.372;2023-04-01T21:33:53;99621.09;;;6.81;100.00
68525;BME280;55524;51.380;13.372;2023-04-01T21:39:33;99634.66;;;6.69;100.00
68525;BME280;55524;51.380;13.372;2023-04-01T21:47:46;99643.66;;;6.61;100.00
68525;BME280;55524;51.380;13.372;2023-04-01T21:53:37;99648.09;;;6.59;100.00
68525;BME280;55524;51.380;13.372;2023-04-01T22:12:58;99676.56;;;6.19;100.00
68525;BME280;55524;51.380;13.372;2023-04-01T22:18:32;99676.09;;;6.06;100.00
68525;BME280;55524;51.380;13.372;2023-04-01T22:27:41;99684.31;;;5.95;100.00
68525;BME280;55524;51.380;13.372;2023-04-01T22:32:54;99695.78;;;5.89;100.00
68525;BME280;55524;51.380;13.372;2023-04-01T22:35:41;99696.66;;;5.90;100.00
68525;BME280;55524;51.380;13.372;2023-04-01T22:38:34;99708.00;;;5.90;100.00
68525;BME280;55524;51.380;13.372;2023-04-01T22:43:58;99714.34;;;5.83;100.00
68525;BME280;55524;51.380;13.372;2023-04-01T22:54:27;99728.59;;;5.75;100.00
68525;BME280;55524;51.380;13.372;2023-04-01T23:05:46;99747.16;;;5.67;100.00
68525;BME280;55524;51.380;13.372;2023-04-01T23:16:50;99763.22;;;5.55;100.00
68525;BME280;55524;51.380;13.372;2023-04-01T23:24:50;99774.78;;;5.46;100.00
68525;BME280;55524;51.380;13.372;2023-04-01T23:27:31;99775.75;;;5.43;100.00
68525;BME280;55524;51.380;13.372;2023-04-01T23:30:01;99777.53;;;5.41;100.00
68525;BME280;55524;51.380;13.372;2023-04-01T23:32:29;99793.25;;;5.43;100.00
68525;BME280;55524;51.380;13.372;2023-04-01T23:34:58;99793.25;;;5.43;100.00
68525;BME280;55524;51.380;13.372;2023-04-01T23:37:26;99795.88;;;5.41;100.00
68525;BME280;55524;51.380;13.372;2023-04-01T23:39:55;99803.66;;;5.45;100.00
68525;BME280;55524;51.380;13.372;2023-04-01T23:44:55;99806.50;;;5.37;100.00
68525;BME280;55524;51.380;13.372;2023-04-01T23:47:24;99816.16;;;5.35;100.00
68525;BME280;55524;51.380;13.372;2023-04-01T23:50:10;99811.19;;;5.24;100.00
68525;BME280;55524;51.380;13.372;2023-04-01T23:52:48;99813.94;;;5.20;100.00
68525;BME280;55524;51.380;13.372;2023-04-01T23:55:28;99820.09;;;5.17;100.00
68525;BME280;55524;51.380;13.372;2023-04-01T23:58:27;99830.53;;;5.18;100.00
